Aeroporto :
LOGIN :

Iscrizione | Disclaimer

   EN    FR    IT 

 










Sommario :    VFR   VFR Marginale   IFR   IFR Intensivo   IFR Molto Intensivo
Visibilità : 
Base nubi : 
>= 8 km
>= 3000ft
5 / 8 km
1000 / 3000 ft
1500m / 5 km
500 / 1000 ft
800 / 1500m
200 / 500 ft
< 800m
< 200 ft
Simboli :   Temporali  Nebbia  Neve Forte  Precipitazioni Forti  Vento > 20 kt
SIGMETs :   Varie  Temporali  Ghiacco  Turbolenza  Onda orograficha  Ceneri Vulcaniche






- Altitudine del aeroporto : 82 ft
- Codice IATA : QIE


LFMI - Istres

ULTIMO METAR :
  • 200630Z AUTO 02006KT CAVOK 06/04 Q1012 BECMG BKN007 BKN035

METARs OBSOLETI :
  • 200600Z AUTO 02007KT 9999 SCT034 BKN072 06/04 Q1012 BECMG BKN007 BKN035
  • 200530Z AUTO 02008KT 9999 OVC036 06/04 Q1012 BECMG BKN007 BKN035
  • 200500Z AUTO 02008KT 9999 OVC039 06/04 Q1012 BECMG BKN007 BKN035
  • 200430Z AUTO 02007KT 9999 BKN040 06/04 Q1012 BECMG BKN007 BKN035
  • 200400Z AUTO 03008KT 9999 FEW042 SCT074 06/04 Q1013 BECMG BKN007 BKN035

TAF AMD TAF LFMI
Valido dal 20 a 06 ore il 21 a 03 ore UTC


200641Z 2006/2103 02006KT 9999 SCT035 BKN065
TEMPO 2006/2009 BKN035
BECMG 2009/2011 VRB04KT BKN030
TEMPO 2011/2014 -RA
BECMG 2014/2016 09008KT BKN040
TEMPO 2016/2103 SCT035



MetMap, La meteo Aeronautica in un colpo d'occhio ! - Copyright ORBIFLY Dicembre 2007 - Disclaimer

ORBIFLY MET'MAP TEAM :

Programmazione e sviluppo : Alexandra Zaïnal
Concezione e sviluppo : Baudouin d'Aumeries
Co-Programmazione e sviluppo : Marc-Olivier Méhu
Supporto tecnico e logistico : Manuel Goepfert
Aiuto per la traduzione : Arnaldo La Scala

Contatto : metmap@orbifly.com




FONTI E CREDITI :

   NOAA